B12G9 ZGHA-ZSWZ
Flight info
| Callsign | B12G9 |
|---|---|
| Flight time | N/A |
| Altitude | 16700 |
| Route | PATVO W227 OMKOB DCT P645 DCT SHR DCT BZ A470 KAGED |
| Aircraft | B58T/L-SDFGRY/C |
Departure
| Time | 2026-05-06 13:50 |
|---|---|
| Airport | Changsha Huanghua International Airport (ZGHA) |
Arrival
| Time | N/A |
|---|---|
| Airport | Wenzhou Longwan International Airport (ZSWZ) |
| Time | Latitude | Longitude | Altitude | Speed | Heading |
|---|---|---|---|---|---|
| 2026-05-06 13:22 | 28.20740 | 113.21565 | 208 ft | 0 kts | 88° |
| 2026-05-06 13:42 | 28.20741 | 113.21579 | 208 ft | 5 kts | 88° |
| 2026-05-06 13:42 | 28.20729 | 113.21633 | 215 ft | 10 kts | 177° |
| 2026-05-06 13:42 | 28.20663 | 113.21635 | 214 ft | 9 kts | 178° |
| 2026-05-06 13:43 | 28.20617 | 113.21675 | 209 ft | 8 kts | 123° |
| 2026-05-06 13:43 | 28.20602 | 113.21716 | 215 ft | 0 kts | 86° |
| 2026-05-06 13:48 | 28.20603 | 113.21732 | 211 ft | 5 kts | 86° |
| 2026-05-06 13:48 | 28.20605 | 113.21794 | 210 ft | 8 kts | 86° |
| 2026-05-06 13:48 | 28.20589 | 113.21860 | 210 ft | 9 kts | 139° |
| 2026-05-06 13:49 | 28.20545 | 113.21877 | 215 ft | 0 kts | 176° |
| 2026-05-06 13:49 | 28.20507 | 113.21880 | 210 ft | 28 kts | 176° |
| 2026-05-06 13:49 | 28.20075 | 113.21906 | 209 ft | 92 kts | 177° |
| 2026-05-06 13:49 | 28.19320 | 113.21942 | 315 ft | 118 kts | 178° |
| 2026-05-06 13:50 | 28.18467 | 113.22000 | 569 ft | 125 kts | 175° |
| 2026-05-06 13:50 | 28.17590 | 113.22092 | 780 ft | 130 kts | 176° |
| 2026-05-06 13:50 | 28.16679 | 113.22128 | 1004 ft | 131 kts | 177° |
| 2026-05-06 13:50 | 28.15775 | 113.22175 | 1260 ft | 128 kts | 176° |
| 2026-05-06 13:51 | 28.14897 | 113.22235 | 1516 ft | 125 kts | 176° |
| 2026-05-06 13:51 | 28.14043 | 113.22285 | 1752 ft | 122 kts | 177° |
| 2026-05-06 13:51 | 28.13202 | 113.22334 | 1974 ft | 120 kts | 177° |
| 2026-05-06 13:51 | 28.12369 | 113.22383 | 2218 ft | 118 kts | 177° |
| 2026-05-06 13:52 | 28.11555 | 113.22433 | 2482 ft | 116 kts | 177° |
| 2026-05-06 13:52 | 28.10752 | 113.22482 | 2737 ft | 115 kts | 177° |
| 2026-05-06 13:52 | 28.09954 | 113.22530 | 2990 ft | 115 kts | 178° |
| 2026-05-06 13:52 | 28.09175 | 113.22716 | 3215 ft | 118 kts | 151° |
| 2026-05-06 13:53 | 28.08651 | 113.23454 | 3458 ft | 127 kts | 115° |
| 2026-05-06 13:53 | 28.08551 | 113.24476 | 3702 ft | 132 kts | 102° |
| 2026-05-06 13:53 | 28.08478 | 113.25515 | 3940 ft | 132 kts | 102° |
| 2026-05-06 13:53 | 28.08411 | 113.26554 | 4188 ft | 133 kts | 102° |
| 2026-05-06 13:54 | 28.08343 | 113.27600 | 4429 ft | 133 kts | 102° |
| 2026-05-06 13:54 | 28.08277 | 113.28651 | 4660 ft | 134 kts | 101° |
| 2026-05-06 13:54 | 28.08208 | 113.29710 | 4887 ft | 135 kts | 102° |
| 2026-05-06 13:54 | 28.08139 | 113.30774 | 5119 ft | 136 kts | 101° |
| 2026-05-06 13:55 | 28.08070 | 113.31845 | 5360 ft | 137 kts | 101° |
| 2026-05-06 13:55 | 28.07999 | 113.32928 | 5597 ft | 138 kts | 101° |
| 2026-05-06 13:55 | 28.07927 | 113.34016 | 5839 ft | 139 kts | 101° |
| 2026-05-06 13:55 | 28.07854 | 113.35115 | 6073 ft | 140 kts | 101° |
| 2026-05-06 13:56 | 28.07781 | 113.36220 | 6303 ft | 141 kts | 101° |
| 2026-05-06 13:56 | 28.07707 | 113.37332 | 6527 ft | 142 kts | 100° |
| 2026-05-06 13:56 | 28.07633 | 113.38455 | 6759 ft | 143 kts | 100° |
| 2026-05-06 13:56 | 28.07557 | 113.39584 | 6984 ft | 144 kts | 100° |
| 2026-05-06 13:57 | 28.07482 | 113.40720 | 7216 ft | 145 kts | 99° |
| 2026-05-06 13:57 | 28.07404 | 113.41867 | 7447 ft | 146 kts | 99° |
| 2026-05-06 13:57 | 28.07326 | 113.43018 | 7677 ft | 147 kts | 99° |
| 2026-05-06 13:57 | 28.07250 | 113.44177 | 7911 ft | 148 kts | 98° |
| 2026-05-06 13:58 | 28.07157 | 113.45337 | 8142 ft | 148 kts | 103° |
| 2026-05-06 13:58 | 28.07004 | 113.46498 | 8377 ft | 150 kts | 101° |
| 2026-05-06 13:58 | 28.06869 | 113.47681 | 8584 ft | 152 kts | 101° |
| 2026-05-06 13:58 | 28.06729 | 113.48876 | 8809 ft | 154 kts | 101° |
| 2026-05-06 13:59 | 28.06585 | 113.50082 | 9032 ft | 155 kts | 101° |
| 2026-05-06 13:59 | 28.06438 | 113.51300 | 9270 ft | 157 kts | 101° |
| 2026-05-06 13:59 | 28.06292 | 113.52508 | 9501 ft | 157 kts | 100° |
| 2026-05-06 13:59 | 28.06143 | 113.53741 | 9723 ft | 158 kts | 99° |
| 2026-05-06 14:00 | 28.05994 | 113.54976 | 9915 ft | 159 kts | 99° |
| 2026-05-06 14:00 | 28.05844 | 113.56219 | 10107 ft | 160 kts | 99° |
| 2026-05-06 14:00 | 28.05693 | 113.57469 | 10307 ft | 161 kts | 99° |
| 2026-05-06 14:00 | 28.05592 | 113.58301 | 10443 ft | 161 kts | 99° |
| 2026-05-06 14:01 | 28.05388 | 113.59986 | 10714 ft | 162 kts | 99° |
| 2026-05-06 14:01 | 28.05234 | 113.61254 | 10933 ft | 163 kts | 99° |
| 2026-05-06 14:01 | 28.05081 | 113.62528 | 11146 ft | 163 kts | 99° |
| 2026-05-06 14:01 | 28.04978 | 113.63372 | 11284 ft | 164 kts | 99° |
| 2026-05-06 14:02 | 28.04821 | 113.64655 | 11492 ft | 165 kts | 99° |
| 2026-05-06 14:02 | 28.04665 | 113.65943 | 11715 ft | 166 kts | 99° |
| 2026-05-06 14:02 | 28.04508 | 113.67239 | 11925 ft | 166 kts | 99° |
| 2026-05-06 14:02 | 28.04319 | 113.68523 | 12133 ft | 166 kts | 99° |
| 2026-05-06 14:03 | 28.04192 | 113.69827 | 12337 ft | 167 kts | 98° |
| 2026-05-06 14:03 | 28.04239 | 113.71142 | 12547 ft | 168 kts | 79° |
| 2026-05-06 14:03 | 28.04414 | 113.72450 | 12758 ft | 169 kts | 82° |
| 2026-05-06 14:03 | 28.04484 | 113.73041 | 12850 ft | 169 kts | 82° |